sensor_id;sensor_type;location;lat;lon;timestamp;P1;durP1;ratioP1;P2;durP2;ratioP2
781;SDS011;374;52.568;13.402;2022-10-16T00:00:19;3.13;;;2.83;;
781;SDS011;374;52.568;13.402;2022-10-16T00:02:45;2.90;;;2.70;;
781;SDS011;374;52.568;13.402;2022-10-16T00:05:10;2.90;;;2.70;;
781;SDS011;374;52.568;13.402;2022-10-16T00:07:36;3.00;;;2.80;;
781;SDS011;374;52.568;13.402;2022-10-16T00:10:01;2.83;;;2.63;;
781;SDS011;374;52.568;13.402;2022-10-16T00:12:27;3.33;;;3.07;;
781;SDS011;374;52.568;13.402;2022-10-16T00:14:53;3.37;;;3.10;;
781;SDS011;374;52.568;13.402;2022-10-16T00:17:18;3.93;;;3.63;;
781;SDS011;374;52.568;13.402;2022-10-16T00:19:44;3.53;;;3.23;;
781;SDS011;374;52.568;13.402;2022-10-16T00:22:09;2.93;;;2.77;;
781;SDS011;374;52.568;13.402;2022-10-16T00:24:36;4.13;;;2.97;;
781;SDS011;374;52.568;13.402;2022-10-16T00:27:01;3.90;;;2.90;;
781;SDS011;374;52.568;13.402;2022-10-16T00:29:27;2.57;;;2.37;;
781;SDS011;374;52.568;13.402;2022-10-16T00:31:52;2.73;;;2.53;;
781;SDS011;374;52.568;13.402;2022-10-16T00:34:18;3.57;;;3.17;;
781;SDS011;374;52.568;13.402;2022-10-16T00:36:46;2.83;;;2.63;;
781;SDS011;374;52.568;13.402;2022-10-16T00:39:15;2.60;;;2.40;;
781;SDS011;374;52.568;13.402;2022-10-16T00:41:40;3.30;;;3.00;;
781;SDS011;374;52.568;13.402;2022-10-16T00:47:14;2.73;;;2.53;;
781;SDS011;374;52.568;13.402;2022-10-16T00:49:54;3.30;;;3.00;;
781;SDS011;374;52.568;13.402;2022-10-16T00:52:24;3.03;;;2.83;;
781;SDS011;374;52.568;13.402;2022-10-16T00:54:50;2.60;;;2.40;;
781;SDS011;374;52.568;13.402;2022-10-16T00:57:18;3.20;;;2.60;;
781;SDS011;374;52.568;13.402;2022-10-16T00:59:44;2.70;;;2.50;;
781;SDS011;374;52.568;13.402;2022-10-16T01:02:11;2.93;;;2.73;;
781;SDS011;374;52.568;13.402;2022-10-16T01:04:39;2.40;;;2.23;;
781;SDS011;374;52.568;13.402;2022-10-16T01:07:16;2.90;;;2.70;;
781;SDS011;374;52.568;13.402;2022-10-16T01:10:06;2.80;;;2.60;;
781;SDS011;374;52.568;13.402;2022-10-16T01:12:36;3.10;;;2.90;;
781;SDS011;374;52.568;13.402;2022-10-16T01:15:26;2.80;;;2.60;;
781;SDS011;374;52.568;13.402;2022-10-16T01:18:06;3.07;;;2.87;;
781;SDS011;374;52.568;13.402;2022-10-16T01:20:44;2.60;;;2.40;;
781;SDS011;374;52.568;13.402;2022-10-16T01:28:17;2.80;;;2.60;;
781;SDS011;374;52.568;13.402;2022-10-16T01:30:46;2.37;;;2.17;;
781;SDS011;374;52.568;13.402;2022-10-16T01:33:20;3.00;;;2.80;;
781;SDS011;374;52.568;13.402;2022-10-16T01:35:53;2.90;;;2.70;;
781;SDS011;374;52.568;13.402;2022-10-16T01:38:36;3.17;;;2.97;;
781;SDS011;374;52.568;13.402;2022-10-16T01:41:08;2.60;;;2.40;;
781;SDS011;374;52.568;13.402;2022-10-16T01:43:43;2.67;;;2.50;;
781;SDS011;374;52.568;13.402;2022-10-16T01:46:12;2.43;;;2.33;;
781;SDS011;374;52.568;13.402;2022-10-16T01:48:41;2.97;;;2.77;;
781;SDS011;374;52.568;13.402;2022-10-16T01:51:08;3.50;;;2.70;;
781;SDS011;374;52.568;13.402;2022-10-16T01:53:36;2.80;;;2.60;;
781;SDS011;374;52.568;13.402;2022-10-16T01:56:04;2.67;;;2.47;;
781;SDS011;374;52.568;13.402;2022-10-16T01:58:34;2.77;;;2.57;;
781;SDS011;374;52.568;13.402;2022-10-16T02:01:03;2.70;;;2.50;;
781;SDS011;374;52.568;13.402;2022-10-16T02:03:29;2.50;;;2.40;;
781;SDS011;374;52.568;13.402;2022-10-16T02:05:56;2.67;;;2.47;;
781;SDS011;374;52.568;13.402;2022-10-16T02:08:24;2.50;;;2.40;;
781;SDS011;374;52.568;13.402;2022-10-16T02:10:53;2.73;;;2.53;;
781;SDS011;374;52.568;13.402;2022-10-16T02:15:51;2.57;;;2.37;;
781;SDS011;374;52.568;13.402;2022-10-16T02:18:17;2.60;;;2.40;;
781;SDS011;374;52.568;13.402;2022-10-16T02:20:48;5.63;;;2.90;;
781;SDS011;374;52.568;13.402;2022-10-16T02:23:23;2.67;;;2.47;;
781;SDS011;374;52.568;13.402;2022-10-16T02:25:56;2.97;;;2.77;;
781;SDS011;374;52.568;13.402;2022-10-16T02:28:26;2.57;;;2.37;;
781;SDS011;374;52.568;13.402;2022-10-16T02:31:00;2.80;;;2.60;;
781;SDS011;374;52.568;13.402;2022-10-16T02:33:29;2.70;;;2.50;;
781;SDS011;374;52.568;13.402;2022-10-16T02:35:56;2.90;;;2.70;;
781;SDS011;374;52.568;13.402;2022-10-16T02:38:22;2.93;;;2.73;;
781;SDS011;374;52.568;13.402;2022-10-16T02:40:50;2.60;;;2.40;;
781;SDS011;374;52.568;13.402;2022-10-16T02:43:15;2.47;;;2.30;;
781;SDS011;374;52.568;13.402;2022-10-16T02:45:41;2.50;;;2.40;;
781;SDS011;374;52.568;13.402;2022-10-16T02:48:07;2.37;;;2.27;;
781;SDS011;374;52.568;13.402;2022-10-16T02:50:32;2.50;;;2.40;;
781;SDS011;374;52.568;13.402;2022-10-16T02:52:58;5.37;;;2.50;;
781;SDS011;374;52.568;13.402;2022-10-16T02:55:23;2.40;;;2.30;;
781;SDS011;374;52.568;13.402;2022-10-16T02:57:49;2.33;;;2.23;;
781;SDS011;374;52.568;13.402;2022-10-16T03:00:15;2.93;;;2.73;;
781;SDS011;374;52.568;13.402;2022-10-16T03:02:42;2.50;;;2.40;;
781;SDS011;374;52.568;13.402;2022-10-16T03:05:08;2.60;;;2.40;;
781;SDS011;374;52.568;13.402;2022-10-16T03:07:34;3.30;;;3.10;;
781;SDS011;374;52.568;13.402;2022-10-16T03:09:59;3.10;;;2.90;;
781;SDS011;374;52.568;13.402;2022-10-16T03:12:28;3.10;;;2.50;;
781;SDS011;374;52.568;13.402;2022-10-16T03:14:54;3.13;;;2.80;;
781;SDS011;374;52.568;13.402;2022-10-16T03:17:21;2.83;;;2.30;;
781;SDS011;374;52.568;13.402;2022-10-16T03:19:47;3.50;;;3.27;;
781;SDS011;374;52.568;13.402;2022-10-16T03:22:12;3.47;;;3.17;;
781;SDS011;374;52.568;13.402;2022-10-16T03:24:38;2.20;;;2.00;;
781;SDS011;374;52.568;13.402;2022-10-16T03:27:03;2.80;;;2.60;;
781;SDS011;374;52.568;13.402;2022-10-16T03:29:29;2.53;;;2.33;;
781;SDS011;374;52.568;13.402;2022-10-16T03:31:55;3.50;;;3.20;;
781;SDS011;374;52.568;13.402;2022-10-16T03:34:21;2.87;;;2.67;;
781;SDS011;374;52.568;13.402;2022-10-16T03:36:47;2.80;;;2.40;;
781;SDS011;374;52.568;13.402;2022-10-16T03:39:12;2.50;;;2.30;;
781;SDS011;374;52.568;13.402;2022-10-16T03:41:38;3.40;;;2.70;;
781;SDS011;374;52.568;13.402;2022-10-16T03:44:03;3.40;;;3.10;;
781;SDS011;374;52.568;13.402;2022-10-16T03:46:28;3.40;;;3.10;;
781;SDS011;374;52.568;13.402;2022-10-16T03:48:54;3.33;;;3.13;;
781;SDS011;374;52.568;13.402;2022-10-16T03:51:19;2.80;;;2.70;;
781;SDS011;374;52.568;13.402;2022-10-16T03:53:45;3.37;;;3.03;;
781;SDS011;374;52.568;13.402;2022-10-16T03:56:10;2.90;;;2.70;;
781;SDS011;374;52.568;13.402;2022-10-16T03:58:36;4.33;;;2.80;;
781;SDS011;374;52.568;13.402;2022-10-16T04:01:02;3.27;;;3.00;;
781;SDS011;374;52.568;13.402;2022-10-16T04:03:27;2.97;;;2.77;;
781;SDS011;374;52.568;13.402;2022-10-16T04:05:53;2.47;;;2.33;;
781;SDS011;374;52.568;13.402;2022-10-16T04:08:18;2.73;;;2.53;;
781;SDS011;374;52.568;13.402;2022-10-16T04:10:44;2.93;;;2.73;;
781;SDS011;374;52.568;13.402;2022-10-16T04:13:09;2.73;;;2.53;;
781;SDS011;374;52.568;13.402;2022-10-16T04:15:35;3.67;;;3.07;;
781;SDS011;374;52.568;13.402;2022-10-16T04:18:01;3.27;;;2.57;;
781;SDS011;374;52.568;13.402;2022-10-16T04:20:27;2.80;;;2.60;;
781;SDS011;374;52.568;13.402;2022-10-16T04:22:52;2.83;;;2.60;;
781;SDS011;374;52.568;13.402;2022-10-16T04:25:18;3.00;;;2.80;;
781;SDS011;374;52.568;13.402;2022-10-16T04:27:43;3.70;;;3.40;;
781;SDS011;374;52.568;13.402;2022-10-16T04:30:09;4.07;;;2.57;;
781;SDS011;374;52.568;13.402;2022-10-16T04:32:35;2.90;;;2.77;;
781;SDS011;374;52.568;13.402;2022-10-16T04:35:00;2.70;;;2.50;;
781;SDS011;374;52.568;13.402;2022-10-16T04:37:26;3.00;;;2.70;;
781;SDS011;374;52.568;13.402;2022-10-16T04:39:52;2.97;;;2.77;;
781;SDS011;374;52.568;13.402;2022-10-16T04:42:19;2.20;;;2.10;;
781;SDS011;374;52.568;13.402;2022-10-16T04:44:45;3.33;;;3.13;;
781;SDS011;374;52.568;13.402;2022-10-16T04:47:11;3.10;;;2.90;;
781;SDS011;374;52.568;13.402;2022-10-16T04:49:36;3.10;;;2.90;;
781;SDS011;374;52.568;13.402;2022-10-16T04:52:02;4.60;;;2.93;;
781;SDS011;374;52.568;13.402;2022-10-16T04:54:28;3.53;;;3.23;;
781;SDS011;374;52.568;13.402;2022-10-16T04:56:53;3.53;;;2.90;;
781;SDS011;374;52.568;13.402;2022-10-16T04:59:20;6.90;;;5.30;;
781;SDS011;374;52.568;13.402;2022-10-16T05:01:45;7.93;;;6.00;;
781;SDS011;374;52.568;13.402;2022-10-16T05:04:11;6.13;;;5.53;;
781;SDS011;374;52.568;13.402;2022-10-16T05:06:37;5.00;;;4.50;;
781;SDS011;374;52.568;13.402;2022-10-16T05:09:03;5.50;;;4.83;;
781;SDS011;374;52.568;13.402;2022-10-16T05:11:33;4.73;;;3.70;;
781;SDS011;374;52.568;13.402;2022-10-16T05:13:59;4.03;;;3.73;;
781;SDS011;374;52.568;13.402;2022-10-16T05:16:25;3.30;;;3.10;;
781;SDS011;374;52.568;13.402;2022-10-16T05:18:53;3.70;;;3.47;;
781;SDS011;374;52.568;13.402;2022-10-16T05:21:20;3.60;;;3.30;;
781;SDS011;374;52.568;13.402;2022-10-16T05:23:46;3.43;;;3.13;;
781;SDS011;374;52.568;13.402;2022-10-16T05:26:11;3.70;;;3.40;;
781;SDS011;374;52.568;13.402;2022-10-16T05:28:37;4.40;;;4.10;;
781;SDS011;374;52.568;13.402;2022-10-16T05:31:06;3.20;;;2.90;;
781;SDS011;374;52.568;13.402;2022-10-16T05:33:33;3.37;;;3.17;;
781;SDS011;374;52.568;13.402;2022-10-16T05:36:02;3.70;;;3.40;;
781;SDS011;374;52.568;13.402;2022-10-16T05:38:29;3.87;;;3.57;;
781;SDS011;374;52.568;13.402;2022-10-16T05:40:54;3.60;;;3.30;;
781;SDS011;374;52.568;13.402;2022-10-16T05:43:21;3.90;;;3.53;;
781;SDS011;374;52.568;13.402;2022-10-16T05:45:56;4.10;;;3.30;;
781;SDS011;374;52.568;13.402;2022-10-16T05:48:22;3.47;;;3.27;;
781;SDS011;374;52.568;13.402;2022-10-16T05:50:55;3.50;;;3.20;;
781;SDS011;374;52.568;13.402;2022-10-16T05:53:26;5.93;;;3.47;;
781;SDS011;374;52.568;13.402;2022-10-16T05:55:53;3.53;;;3.23;;
781;SDS011;374;52.568;13.402;2022-10-16T05:58:19;4.37;;;4.00;;
781;SDS011;374;52.568;13.402;2022-10-16T06:00:44;4.40;;;4.00;;
781;SDS011;374;52.568;13.402;2022-10-16T06:03:17;4.67;;;4.33;;
781;SDS011;374;52.568;13.402;2022-10-16T06:05:42;4.73;;;4.33;;
781;SDS011;374;52.568;13.402;2022-10-16T06:08:08;3.80;;;3.50;;
781;SDS011;374;52.568;13.402;2022-10-16T06:10:33;4.63;;;3.63;;
781;SDS011;374;52.568;13.402;2022-10-16T06:12:59;3.33;;;3.10;;
781;SDS011;374;52.568;13.402;2022-10-16T06:15:24;5.00;;;3.70;;
781;SDS011;374;52.568;13.402;2022-10-16T06:17:50;7.17;;;3.50;;
781;SDS011;374;52.568;13.402;2022-10-16T06:20:15;4.43;;;3.77;;
781;SDS011;374;52.568;13.402;2022-10-16T06:22:41;3.57;;;3.20;;
781;SDS011;374;52.568;13.402;2022-10-16T06:25:06;3.93;;;3.60;;
781;SDS011;374;52.568;13.402;2022-10-16T06:27:32;4.00;;;3.43;;
781;SDS011;374;52.568;13.402;2022-10-16T06:29:57;3.47;;;2.90;;
781;SDS011;374;52.568;13.402;2022-10-16T06:32:23;5.00;;;4.53;;
781;SDS011;374;52.568;13.402;2022-10-16T06:34:48;3.97;;;2.90;;
781;SDS011;374;52.568;13.402;2022-10-16T06:37:14;4.07;;;3.53;;
781;SDS011;374;52.568;13.402;2022-10-16T06:39:39;3.20;;;2.90;;
781;SDS011;374;52.568;13.402;2022-10-16T06:42:05;3.87;;;3.57;;
781;SDS011;374;52.568;13.402;2022-10-16T06:44:30;3.83;;;3.50;;
781;SDS011;374;52.568;13.402;2022-10-16T06:46:56;4.07;;;3.30;;
781;SDS011;374;52.568;13.402;2022-10-16T06:49:21;3.27;;;3.07;;
781;SDS011;374;52.568;13.402;2022-10-16T06:51:48;3.50;;;3.20;;
781;SDS011;374;52.568;13.402;2022-10-16T06:54:14;3.20;;;2.97;;
781;SDS011;374;52.568;13.402;2022-10-16T06:56:41;3.37;;;3.17;;
781;SDS011;374;52.568;13.402;2022-10-16T06:59:06;4.03;;;3.73;;
781;SDS011;374;52.568;13.402;2022-10-16T07:01:32;3.30;;;3.10;;
781;SDS011;374;52.568;13.402;2022-10-16T07:03:58;6.13;;;3.70;;
781;SDS011;374;52.568;13.402;2022-10-16T07:06:25;3.60;;;3.30;;
781;SDS011;374;52.568;13.402;2022-10-16T07:08:51;3.53;;;3.20;;
781;SDS011;374;52.568;13.402;2022-10-16T07:11:18;3.80;;;3.50;;
781;SDS011;374;52.568;13.402;2022-10-16T07:13:45;3.97;;;3.70;;
781;SDS011;374;52.568;13.402;2022-10-16T07:16:13;4.77;;;3.70;;
781;SDS011;374;52.568;13.402;2022-10-16T07:18:43;4.07;;;3.73;;
781;SDS011;374;52.568;13.402;2022-10-16T07:21:17;3.83;;;3.53;;
781;SDS011;374;52.568;13.402;2022-10-16T07:23:45;4.00;;;3.60;;
781;SDS011;374;52.568;13.402;2022-10-16T07:26:15;3.30;;;3.10;;
781;SDS011;374;52.568;13.402;2022-10-16T07:28:41;3.73;;;3.30;;
781;SDS011;374;52.568;13.402;2022-10-16T07:31:09;3.00;;;2.70;;
781;SDS011;374;52.568;13.402;2022-10-16T07:33:37;2.70;;;2.60;;
781;SDS011;374;52.568;13.402;2022-10-16T07:36:04;5.00;;;2.37;;
781;SDS011;374;52.568;13.402;2022-10-16T07:38:30;2.70;;;2.50;;
781;SDS011;374;52.568;13.402;2022-10-16T07:40:56;2.20;;;2.10;;
781;SDS011;374;52.568;13.402;2022-10-16T07:43:24;2.53;;;2.33;;
781;SDS011;374;52.568;13.402;2022-10-16T07:45:50;3.00;;;2.80;;
781;SDS011;374;52.568;13.402;2022-10-16T07:48:16;2.77;;;2.57;;
781;SDS011;374;52.568;13.402;2022-10-16T07:50:42;2.90;;;2.50;;
781;SDS011;374;52.568;13.402;2022-10-16T07:53:08;3.60;;;2.63;;
781;SDS011;374;52.568;13.402;2022-10-16T07:55:34;2.67;;;2.47;;
781;SDS011;374;52.568;13.402;2022-10-16T07:58:00;2.37;;;2.17;;
781;SDS011;374;52.568;13.402;2022-10-16T08:00:25;3.60;;;3.30;;
781;SDS011;374;52.568;13.402;2022-10-16T08:02:51;2.80;;;2.60;;
781;SDS011;374;52.568;13.402;2022-10-16T08:05:16;2.37;;;2.17;;
781;SDS011;374;52.568;13.402;2022-10-16T08:07:42;4.10;;;2.73;;
781;SDS011;374;52.568;13.402;2022-10-16T08:10:11;2.30;;;2.10;;
781;SDS011;374;52.568;13.402;2022-10-16T08:12:42;2.97;;;2.73;;
781;SDS011;374;52.568;13.402;2022-10-16T08:15:07;2.90;;;2.70;;
781;SDS011;374;52.568;13.402;2022-10-16T08:17:34;2.33;;;2.13;;
781;SDS011;374;52.568;13.402;2022-10-16T08:19:59;2.60;;;2.40;;
781;SDS011;374;52.568;13.402;2022-10-16T08:22:25;2.40;;;2.30;;
781;SDS011;374;52.568;13.402;2022-10-16T08:24:51;3.13;;;2.90;;
781;SDS011;374;52.568;13.402;2022-10-16T08:27:16;2.40;;;2.20;;
781;SDS011;374;52.568;13.402;2022-10-16T08:29:42;2.23;;;2.13;;
781;SDS011;374;52.568;13.402;2022-10-16T08:32:07;2.80;;;2.60;;
781;SDS011;374;52.568;13.402;2022-10-16T08:34:33;2.83;;;2.63;;
781;SDS011;374;52.568;13.402;2022-10-16T08:36:58;2.77;;;2.63;;
781;SDS011;374;52.568;13.402;2022-10-16T08:39:24;2.80;;;2.60;;
781;SDS011;374;52.568;13.402;2022-10-16T08:50:39;2.63;;;2.43;;
781;SDS011;374;52.568;13.402;2022-10-16T08:53:05;2.93;;;2.73;;
781;SDS011;374;52.568;13.402;2022-10-16T08:55:42;3.00;;;2.80;;
781;SDS011;374;52.568;13.402;2022-10-16T08:58:15;2.80;;;2.60;;
781;SDS011;374;52.568;13.402;2022-10-16T09:00:43;2.07;;;1.97;;
781;SDS011;374;52.568;13.402;2022-10-16T09:20:29;2.10;;;2.00;;
781;SDS011;374;52.568;13.402;2022-10-16T09:25:41;2.97;;;2.40;;
781;SDS011;374;52.568;13.402;2022-10-16T09:28:09;2.40;;;2.30;;
781;SDS011;374;52.568;13.402;2022-10-16T09:30:35;2.83;;;1.90;;
781;SDS011;374;52.568;13.402;2022-10-16T09:33:01;2.23;;;2.13;;
781;SDS011;374;52.568;13.402;2022-10-16T09:35:33;2.90;;;2.43;;
781;SDS011;374;52.568;13.402;2022-10-16T09:38:00;2.27;;;2.17;;
781;SDS011;374;52.568;13.402;2022-10-16T09:40:28;2.13;;;2.03;;
781;SDS011;374;52.568;13.402;2022-10-16T09:48:21;2.30;;;2.20;;
781;SDS011;374;52.568;13.402;2022-10-16T09:50:57;3.40;;;2.17;;
781;SDS011;374;52.568;13.402;2022-10-16T09:53:25;2.30;;;2.20;;
781;SDS011;374;52.568;13.402;2022-10-16T09:56:02;3.13;;;2.40;;
781;SDS011;374;52.568;13.402;2022-10-16T09:58:30;2.20;;;2.10;;
781;SDS011;374;52.568;13.402;2022-10-16T10:00:57;2.73;;;2.53;;
781;SDS011;374;52.568;13.402;2022-10-16T10:03:30;2.37;;;2.17;;
781;SDS011;374;52.568;13.402;2022-10-16T10:06:22;2.30;;;2.20;;
781;SDS011;374;52.568;13.402;2022-10-16T10:11:35;2.67;;;2.50;;
781;SDS011;374;52.568;13.402;2022-10-16T10:17:13;2.03;;;1.93;;
781;SDS011;374;52.568;13.402;2022-10-16T10:19:55;2.30;;;2.10;;
781;SDS011;374;52.568;13.402;2022-10-16T10:44:16;2.20;;;2.10;;
781;SDS011;374;52.568;13.402;2022-10-16T10:47:01;2.77;;;2.10;;
781;SDS011;374;52.568;13.402;2022-10-16T10:52:56;3.07;;;2.77;;
781;SDS011;374;52.568;13.402;2022-10-16T10:58:27;4.50;;;4.10;;
781;SDS011;374;52.568;13.402;2022-10-16T11:01:14;3.07;;;2.77;;
781;SDS011;374;52.568;13.402;2022-10-16T11:06:39;4.00;;;2.37;;
781;SDS011;374;52.568;13.402;2022-10-16T11:09:13;2.30;;;2.03;;
781;SDS011;374;52.568;13.402;2022-10-16T11:14:54;2.40;;;2.20;;
781;SDS011;374;52.568;13.402;2022-10-16T11:17:58;3.63;;;2.70;;
781;SDS011;374;52.568;13.402;2022-10-16T11:20:53;2.37;;;2.17;;
781;SDS011;374;52.568;13.402;2022-10-16T11:26:27;2.43;;;1.90;;
781;SDS011;374;52.568;13.402;2022-10-16T11:28:57;2.10;;;2.00;;
781;SDS011;374;52.568;13.402;2022-10-16T11:34:06;2.20;;;1.90;;
781;SDS011;374;52.568;13.402;2022-10-16T11:36:42;1.80;;;1.70;;
781;SDS011;374;52.568;13.402;2022-10-16T11:47:54;5.50;;;2.40;;
781;SDS011;374;52.568;13.402;2022-10-16T11:50:33;1.73;;;1.63;;
781;SDS011;374;52.568;13.402;2022-10-16T11:56:19;2.17;;;1.97;;
781;SDS011;374;52.568;13.402;2022-10-16T12:01:49;1.90;;;1.80;;
781;SDS011;374;52.568;13.402;2022-10-16T12:04:31;1.90;;;1.80;;
781;SDS011;374;52.568;13.402;2022-10-16T12:07:11;2.57;;;2.17;;
781;SDS011;374;52.568;13.402;2022-10-16T12:09:52;3.13;;;1.70;;
781;SDS011;374;52.568;13.402;2022-10-16T12:12:50;5.10;;;2.00;;
781;SDS011;374;52.568;13.402;2022-10-16T12:18:21;5.90;;;3.60;;
781;SDS011;374;52.568;13.402;2022-10-16T12:21:01;1.83;;;1.73;;
781;SDS011;374;52.568;13.402;2022-10-16T12:26:37;1.90;;;1.80;;
781;SDS011;374;52.568;13.402;2022-10-16T12:29:37;1.90;;;1.80;;
781;SDS011;374;52.568;13.402;2022-10-16T12:35:02;1.20;;;1.10;;
781;SDS011;374;52.568;13.402;2022-10-16T12:44:57;2.33;;;2.00;;
781;SDS011;374;52.568;13.402;2022-10-16T12:47:24;1.73;;;1.63;;
781;SDS011;374;52.568;13.402;2022-10-16T13:02:57;1.27;;;1.17;;
781;SDS011;374;52.568;13.402;2022-10-16T13:09:08;2.43;;;1.10;;
781;SDS011;374;52.568;13.402;2022-10-16T13:18:02;1.70;;;1.30;;
781;SDS011;374;52.568;13.402;2022-10-16T13:23:35;3.13;;;1.47;;
781;SDS011;374;52.568;13.402;2022-10-16T13:29:18;1.30;;;1.20;;
781;SDS011;374;52.568;13.402;2022-10-16T13:31:47;1.33;;;1.23;;
781;SDS011;374;52.568;13.402;2022-10-16T13:34:17;1.60;;;1.50;;
781;SDS011;374;52.568;13.402;2022-10-16T13:36:49;1.70;;;1.57;;
781;SDS011;374;52.568;13.402;2022-10-16T13:42:01;1.60;;;1.50;;
781;SDS011;374;52.568;13.402;2022-10-16T13:44:49;2.03;;;1.67;;
781;SDS011;374;52.568;13.402;2022-10-16T13:47:18;1.60;;;1.50;;
781;SDS011;374;52.568;13.402;2022-10-16T13:49:46;1.80;;;1.70;;
781;SDS011;374;52.568;13.402;2022-10-16T13:52:17;3.30;;;2.67;;
781;SDS011;374;52.568;13.402;2022-10-16T13:54:53;2.00;;;1.60;;
781;SDS011;374;52.568;13.402;2022-10-16T13:57:40;1.63;;;1.53;;
781;SDS011;374;52.568;13.402;2022-10-16T14:03:04;1.80;;;1.70;;
781;SDS011;374;52.568;13.402;2022-10-16T14:05:44;1.20;;;1.10;;
781;SDS011;374;52.568;13.402;2022-10-16T14:08:19;1.30;;;1.20;;
781;SDS011;374;52.568;13.402;2022-10-16T14:11:00;1.10;;;1.10;;
781;SDS011;374;52.568;13.402;2022-10-16T14:13:45;1.67;;;1.57;;
781;SDS011;374;52.568;13.402;2022-10-16T14:16:33;1.20;;;1.20;;
781;SDS011;374;52.568;13.402;2022-10-16T14:19:29;1.53;;;1.40;;
781;SDS011;374;52.568;13.402;2022-10-16T14:21:56;1.40;;;1.30;;
781;SDS011;374;52.568;13.402;2022-10-16T14:26:59;1.30;;;1.20;;
781;SDS011;374;52.568;13.402;2022-10-16T14:29:27;1.53;;;1.43;;
781;SDS011;374;52.568;13.402;2022-10-16T14:32:20;2.10;;;1.50;;
781;SDS011;374;52.568;13.402;2022-10-16T14:34:53;1.97;;;1.40;;
781;SDS011;374;52.568;13.402;2022-10-16T14:37:30;2.80;;;1.87;;
781;SDS011;374;52.568;13.402;2022-10-16T14:40:01;2.20;;;1.60;;
781;SDS011;374;52.568;13.402;2022-10-16T14:42:38;1.40;;;1.30;;
781;SDS011;374;52.568;13.402;2022-10-16T14:45:07;1.27;;;1.17;;
781;SDS011;374;52.568;13.402;2022-10-16T14:47:35;1.43;;;1.33;;
781;SDS011;374;52.568;13.402;2022-10-16T14:50:13;2.50;;;1.30;;
781;SDS011;374;52.568;13.402;2022-10-16T14:52:44;1.80;;;1.70;;
781;SDS011;374;52.568;13.402;2022-10-16T14:55:09;1.13;;;1.03;;
781;SDS011;374;52.568;13.402;2022-10-16T14:57:45;1.73;;;1.50;;
781;SDS011;374;52.568;13.402;2022-10-16T15:00:23;2.40;;;2.20;;
781;SDS011;374;52.568;13.402;2022-10-16T15:03:03;2.33;;;2.13;;
781;SDS011;374;52.568;13.402;2022-10-16T15:05:34;3.03;;;2.00;;
781;SDS011;374;52.568;13.402;2022-10-16T15:08:09;1.83;;;1.70;;
781;SDS011;374;52.568;13.402;2022-10-16T15:10:39;1.77;;;1.67;;
781;SDS011;374;52.568;13.402;2022-10-16T15:13:19;2.70;;;1.60;;
781;SDS011;374;52.568;13.402;2022-10-16T15:15:51;1.70;;;1.60;;
781;SDS011;374;52.568;13.402;2022-10-16T15:18:26;3.80;;;1.70;;
781;SDS011;374;52.568;13.402;2022-10-16T15:21:06;2.03;;;1.80;;
781;SDS011;374;52.568;13.402;2022-10-16T15:24:13;1.90;;;1.80;;
781;SDS011;374;52.568;13.402;2022-10-16T15:27:07;3.27;;;1.83;;
781;SDS011;374;52.568;13.402;2022-10-16T15:30:06;2.87;;;2.60;;
781;SDS011;374;52.568;13.402;2022-10-16T15:36:11;2.30;;;2.10;;
781;SDS011;374;52.568;13.402;2022-10-16T15:42:41;2.20;;;2.00;;
781;SDS011;374;52.568;13.402;2022-10-16T15:45:08;2.77;;;2.50;;
781;SDS011;374;52.568;13.402;2022-10-16T15:47:46;4.17;;;3.67;;
781;SDS011;374;52.568;13.402;2022-10-16T15:50:25;4.90;;;3.37;;
781;SDS011;374;52.568;13.402;2022-10-16T15:53:26;4.10;;;3.80;;
781;SDS011;374;52.568;13.402;2022-10-16T15:56:07;5.77;;;3.13;;
781;SDS011;374;52.568;13.402;2022-10-16T15:59:00;7.20;;;4.03;;
781;SDS011;374;52.568;13.402;2022-10-16T16:01:29;6.87;;;4.07;;
781;SDS011;374;52.568;13.402;2022-10-16T16:04:11;4.20;;;3.80;;
781;SDS011;374;52.568;13.402;2022-10-16T16:06:43;5.30;;;3.30;;
781;SDS011;374;52.568;13.402;2022-10-16T16:09:14;5.00;;;3.20;;
781;SDS011;374;52.568;13.402;2022-10-16T16:11:40;4.20;;;3.60;;
781;SDS011;374;52.568;13.402;2022-10-16T16:14:16;3.43;;;3.10;;
781;SDS011;374;52.568;13.402;2022-10-16T16:16:42;4.70;;;3.30;;
781;SDS011;374;52.568;13.402;2022-10-16T16:19:10;4.00;;;3.00;;
781;SDS011;374;52.568;13.402;2022-10-16T16:21:38;2.97;;;2.67;;
781;SDS011;374;52.568;13.402;2022-10-16T16:24:06;6.33;;;3.40;;
781;SDS011;374;52.568;13.402;2022-10-16T16:26:33;4.57;;;3.60;;
781;SDS011;374;52.568;13.402;2022-10-16T16:29:02;3.53;;;2.80;;
781;SDS011;374;52.568;13.402;2022-10-16T16:31:28;4.00;;;3.53;;
781;SDS011;374;52.568;13.402;2022-10-16T16:33:58;3.60;;;2.80;;
781;SDS011;374;52.568;13.402;2022-10-16T16:36:25;4.73;;;3.80;;
781;SDS011;374;52.568;13.402;2022-10-16T16:38:51;4.63;;;3.50;;
781;SDS011;374;52.568;13.402;2022-10-16T16:41:20;4.87;;;3.87;;
781;SDS011;374;52.568;13.402;2022-10-16T16:43:50;3.97;;;2.70;;
781;SDS011;374;52.568;13.402;2022-10-16T16:46:17;4.27;;;3.87;;
781;SDS011;374;52.568;13.402;2022-10-16T16:48:44;4.10;;;3.50;;
781;SDS011;374;52.568;13.402;2022-10-16T16:51:11;3.03;;;2.83;;
781;SDS011;374;52.568;13.402;2022-10-16T16:53:44;3.90;;;3.50;;
781;SDS011;374;52.568;13.402;2022-10-16T16:56:15;4.00;;;3.57;;
781;SDS011;374;52.568;13.402;2022-10-16T16:58:47;4.47;;;3.47;;
781;SDS011;374;52.568;13.402;2022-10-16T17:01:14;5.47;;;3.80;;
781;SDS011;374;52.568;13.402;2022-10-16T17:03:42;9.23;;;4.17;;
781;SDS011;374;52.568;13.402;2022-10-16T17:06:12;4.13;;;3.73;;
781;SDS011;374;52.568;13.402;2022-10-16T17:08:45;7.40;;;4.57;;
781;SDS011;374;52.568;13.402;2022-10-16T17:11:30;8.60;;;6.23;;
781;SDS011;374;52.568;13.402;2022-10-16T17:13:56;8.17;;;5.90;;
781;SDS011;374;52.568;13.402;2022-10-16T17:16:27;6.67;;;6.00;;
781;SDS011;374;52.568;13.402;2022-10-16T17:18:55;7.60;;;6.43;;
781;SDS011;374;52.568;13.402;2022-10-16T17:21:23;7.73;;;6.10;;
781;SDS011;374;52.568;13.402;2022-10-16T17:23:51;10.17;;;6.93;;
781;SDS011;374;52.568;13.402;2022-10-16T17:26:17;6.70;;;6.10;;
781;SDS011;374;52.568;13.402;2022-10-16T17:28:43;9.50;;;5.10;;
781;SDS011;374;52.568;13.402;2022-10-16T17:31:16;8.93;;;4.70;;
781;SDS011;374;52.568;13.402;2022-10-16T17:33:44;6.67;;;4.97;;
781;SDS011;374;52.568;13.402;2022-10-16T17:36:09;6.97;;;5.57;;
781;SDS011;374;52.568;13.402;2022-10-16T17:38:36;5.50;;;5.00;;
781;SDS011;374;52.568;13.402;2022-10-16T17:43:37;7.23;;;5.20;;
781;SDS011;374;52.568;13.402;2022-10-16T17:46:11;6.40;;;5.10;;
781;SDS011;374;52.568;13.402;2022-10-16T17:48:40;6.43;;;4.93;;
781;SDS011;374;52.568;13.402;2022-10-16T17:51:08;7.27;;;6.00;;
781;SDS011;374;52.568;13.402;2022-10-16T17:53:36;9.57;;;6.70;;
781;SDS011;374;52.568;13.402;2022-10-16T17:56:06;7.40;;;6.70;;
781;SDS011;374;52.568;13.402;2022-10-16T17:58:33;8.63;;;7.70;;
781;SDS011;374;52.568;13.402;2022-10-16T18:01:02;8.03;;;6.97;;
781;SDS011;374;52.568;13.402;2022-10-16T18:03:39;8.40;;;7.13;;
781;SDS011;374;52.568;13.402;2022-10-16T18:06:04;9.33;;;7.70;;
781;SDS011;374;52.568;13.402;2022-10-16T18:08:30;8.50;;;7.70;;
781;SDS011;374;52.568;13.402;2022-10-16T18:10:55;10.00;;;8.20;;
781;SDS011;374;52.568;13.402;2022-10-16T18:13:21;14.60;;;8.67;;
781;SDS011;374;52.568;13.402;2022-10-16T18:15:47;9.20;;;7.20;;
781;SDS011;374;52.568;13.402;2022-10-16T18:18:26;9.90;;;7.27;;
781;SDS011;374;52.568;13.402;2022-10-16T18:20:56;7.47;;;6.60;;
781;SDS011;374;52.568;13.402;2022-10-16T18:23:28;8.57;;;7.67;;
781;SDS011;374;52.568;13.402;2022-10-16T18:25:54;12.10;;;8.70;;
781;SDS011;374;52.568;13.402;2022-10-16T18:28:20;9.20;;;7.50;;
781;SDS011;374;52.568;13.402;2022-10-16T18:30:56;14.93;;;8.30;;
781;SDS011;374;52.568;13.402;2022-10-16T18:33:23;10.37;;;7.70;;
781;SDS011;374;52.568;13.402;2022-10-16T18:35:49;9.60;;;7.73;;